createdAt,value
2018-09-03T00:01:04.316Z,7.90
2018-09-03T00:03:32.684Z,6.57
2018-09-03T00:06:01.076Z,5.80
2018-09-03T00:08:29.650Z,7.60
2018-09-03T00:10:58.046Z,5.23
2018-09-03T00:13:26.500Z,7.70
2018-09-03T00:15:54.900Z,7.50
2018-09-03T00:18:23.300Z,7.30
2018-09-03T00:20:51.716Z,6.90
2018-09-03T00:23:20.094Z,6.33
2018-09-03T00:25:48.476Z,8.87
2018-09-03T00:28:16.895Z,4.60
2018-09-03T00:30:45.284Z,6.90
2018-09-03T00:33:19.478Z,10.50
2018-09-03T00:35:53.156Z,7.00
2018-09-03T00:38:26.872Z,9.70
2018-09-03T00:41:00.631Z,6.30
2018-09-03T00:43:34.353Z,10.40
2018-09-03T00:46:08.060Z,7.13
2018-09-03T00:48:36.668Z,7.33
2018-09-03T00:51:05.195Z,4.57
2018-09-03T00:53:33.565Z,8.90
2018-09-03T00:56:01.982Z,9.83
2018-09-03T00:58:30.407Z,8.97
2018-09-03T01:00:59.692Z,9.20
2018-09-03T01:03:28.269Z,6.13
2018-09-03T01:05:56.648Z,7.33
2018-09-03T01:08:25.028Z,8.10
2018-09-03T01:10:53.425Z,5.83
2018-09-03T01:13:21.791Z,9.97
2018-09-03T01:15:50.166Z,12.57
2018-09-03T01:18:18.562Z,6.97
2018-09-03T01:20:47.968Z,8.03
2018-09-03T01:23:16.350Z,12.87
2018-09-03T01:25:44.780Z,10.00
2018-09-03T01:28:13.254Z,7.80
2018-09-03T01:30:41.630Z,7.50
2018-09-03T01:33:10.240Z,12.40
2018-09-03T01:35:38.621Z,9.53
2018-09-03T01:38:07.000Z,9.70
2018-09-03T01:40:35.390Z,8.37
2018-09-03T01:43:03.780Z,11.10
2018-09-03T01:45:32.160Z,12.87
2018-09-03T01:48:00.599Z,16.60
2018-09-03T01:50:28.993Z,8.93
2018-09-03T01:52:57.384Z,9.17
2018-09-03T01:55:25.764Z,11.90
2018-09-03T01:57:54.162Z,8.97
2018-09-03T02:00:22.584Z,12.70
2018-09-03T02:02:50.986Z,23.43
2018-09-03T02:05:19.380Z,7.83
2018-09-03T02:07:47.792Z,7.63
2018-09-03T02:10:16.172Z,8.33
2018-09-03T02:12:44.580Z,6.60
2018-09-03T02:15:12.968Z,8.67
2018-09-03T02:17:41.349Z,13.27
2018-09-03T02:20:09.808Z,9.40
2018-09-03T02:22:38.188Z,13.73
2018-09-03T02:25:07.160Z,14.67
2018-09-03T02:27:35.564Z,9.10
2018-09-03T02:30:04.060Z,8.87
2018-09-03T02:32:32.477Z,8.20
2018-09-03T02:35:00.870Z,10.13
2018-09-03T02:37:29.252Z,10.97
2018-09-03T02:39:57.851Z,8.20
2018-09-03T02:42:26.232Z,8.87
2018-09-03T02:44:54.617Z,15.33
2018-09-03T02:47:23.288Z,10.33
2018-09-03T02:49:51.681Z,9.93
2018-09-03T02:52:20.121Z,9.63
2018-09-03T02:54:48.535Z,7.87
2018-09-03T02:57:16.930Z,9.90
2018-09-03T02:59:45.409Z,12.20
2018-09-03T03:02:13.785Z,8.83
2018-09-03T03:04:42.189Z,9.27
2018-09-03T03:07:10.653Z,7.70
2018-09-03T03:09:39.049Z,10.37
2018-09-03T03:12:07.128Z,8.87
2018-09-03T03:14:35.564Z,10.73
2018-09-03T03:17:04.532Z,9.20
2018-09-03T03:19:33.156Z,10.47
2018-09-03T03:22:01.551Z,14.67
2018-09-03T03:24:29.932Z,9.73
2018-09-03T03:26:58.332Z,11.23
2018-09-03T03:29:26.728Z,13.93
2018-09-03T03:31:55.133Z,10.50
2018-09-03T03:34:23.544Z,12.63
2018-09-03T03:36:51.916Z,12.43
2018-09-03T03:39:20.346Z,11.57
2018-09-03T03:41:48.741Z,11.60
2018-09-03T03:44:17.125Z,7.30
2018-09-03T03:46:45.672Z,11.13
2018-09-03T03:49:14.049Z,11.00
2018-09-03T03:51:42.540Z,7.60
2018-09-03T03:54:10.941Z,10.10
2018-09-03T03:56:39.378Z,9.37
2018-09-03T03:59:07.791Z,7.70
2018-09-03T04:01:36.205Z,11.57
2018-09-03T04:04:04.595Z,8.53
2018-09-03T04:06:33.000Z,9.13
2018-09-03T04:09:01.371Z,12.73
2018-09-03T04:11:29.753Z,8.67
2018-09-03T04:13:58.292Z,15.70
2018-09-03T04:16:26.697Z,10.90
2018-09-03T04:18:55.082Z,18.80
2018-09-03T04:21:23.498Z,13.33
2018-09-03T04:23:51.894Z,10.30
2018-09-03T04:26:20.281Z,15.80
2018-09-03T04:28:48.732Z,9.37
2018-09-03T04:31:17.112Z,11.23
2018-09-03T04:33:47.731Z,10.10
2018-09-03T04:36:16.159Z,7.43
2018-09-03T04:38:44.646Z,12.70
2018-09-03T04:41:12.980Z,9.63
2018-09-03T04:43:41.371Z,12.13
2018-09-03T04:46:09.768Z,7.83
2018-09-03T04:48:38.182Z,8.20
2018-09-03T04:51:06.572Z,9.40
2018-09-03T04:53:34.976Z,9.60
2018-09-03T04:56:03.357Z,10.83
2018-09-03T04:58:31.772Z,13.87
2018-09-03T05:01:00.170Z,9.57
2018-09-03T05:03:28.548Z,8.20
2018-09-03T05:05:56.993Z,9.33
2018-09-03T05:08:25.351Z,8.10
2018-09-03T05:10:53.756Z,10.63
2018-09-03T05:13:22.371Z,7.80
2018-09-03T05:15:50.753Z,7.70
2018-09-03T05:18:19.197Z,11.03
2018-09-03T05:20:47.672Z,7.57
2018-09-03T05:23:16.120Z,11.67
2018-09-03T05:25:44.524Z,12.03
2018-09-03T05:28:12.949Z,9.57
2018-09-03T05:30:41.338Z,13.53
2018-09-03T05:33:09.838Z,14.60
2018-09-03T05:38:12.825Z,14.53
2018-09-03T05:40:41.521Z,11.93
2018-09-03T05:43:10.605Z,8.93
2018-09-03T05:45:38.994Z,11.10
2018-09-03T05:48:07.460Z,16.13
2018-09-03T05:50:35.903Z,12.30
2018-09-03T05:53:04.425Z,7.87
2018-09-03T05:55:32.897Z,12.00
2018-09-03T05:58:01.351Z,10.83
2018-09-03T06:00:29.998Z,11.03
2018-09-03T06:02:58.394Z,10.33
2018-09-03T06:05:26.874Z,7.67
2018-09-03T06:07:55.353Z,16.43
2018-09-03T06:10:23.929Z,8.83
2018-09-03T06:12:52.345Z,10.33
2018-09-03T06:15:20.774Z,10.87
2018-09-03T06:17:49.244Z,14.83
2018-09-03T06:20:17.637Z,10.20
2018-09-03T06:22:46.035Z,12.87
2018-09-03T06:25:14.464Z,10.37
2018-09-03T06:27:42.856Z,10.20
2018-09-03T06:30:11.257Z,10.27
2018-09-03T06:32:39.912Z,9.50
2018-09-03T06:35:08.353Z,10.57
2018-09-03T06:37:36.752Z,13.57
2018-09-03T06:40:05.240Z,14.67
2018-09-03T06:42:33.956Z,12.00
2018-09-03T06:45:02.392Z,12.40
2018-09-03T06:47:30.833Z,11.67
2018-09-03T06:49:59.280Z,15.07
2018-09-03T06:52:27.695Z,7.47
2018-09-03T06:54:56.160Z,13.80
2018-09-03T06:57:24.598Z,14.80
2018-09-03T06:59:53.226Z,11.30
2018-09-03T07:02:21.645Z,19.00
2018-09-03T07:04:50.025Z,12.10
2018-09-03T07:07:18.436Z,12.80
2018-09-03T07:09:46.885Z,12.53
2018-09-03T07:12:15.322Z,11.10
2018-09-03T07:14:43.713Z,11.33
2018-09-03T07:17:12.137Z,15.23
2018-09-03T07:19:40.536Z,16.90
2018-09-03T07:22:08.980Z,9.60
2018-09-03T07:24:37.386Z,15.77
2018-09-03T07:27:05.947Z,9.23
2018-09-03T07:29:34.409Z,14.50
2018-09-03T07:32:02.796Z,12.13
2018-09-03T07:34:31.196Z,17.53
2018-09-03T07:36:59.785Z,14.37
2018-09-03T07:39:28.184Z,12.47
2018-09-03T07:41:56.575Z,16.23
2018-09-03T07:44:25.157Z,15.97
2018-09-03T07:46:53.539Z,9.93
2018-09-03T07:49:21.932Z,21.50
2018-09-03T07:51:50.363Z,13.43
2018-09-03T07:54:18.808Z,13.27
2018-09-03T07:56:47.171Z,14.80
2018-09-03T07:59:15.589Z,15.10
2018-09-03T08:01:43.993Z,14.53
2018-09-03T08:04:12.385Z,16.07
2018-09-03T08:06:40.829Z,15.77
2018-09-03T08:09:10.877Z,13.40
2018-09-03T08:11:39.378Z,14.57
2018-09-03T08:14:07.720Z,12.27
2018-09-03T08:16:36.112Z,18.83
2018-09-03T08:19:04.546Z,16.63
2018-09-03T08:21:32.948Z,13.93
2018-09-03T08:24:01.385Z,18.57
2018-09-03T08:26:29.832Z,16.00
2018-09-03T08:28:58.224Z,14.60
2018-09-03T08:31:28.988Z,22.70
2018-09-03T08:33:57.394Z,20.97
2018-09-03T08:36:25.839Z,13.10
2018-09-03T08:38:54.407Z,20.80
2018-09-03T08:41:22.832Z,18.93
2018-09-03T08:43:51.236Z,18.37
2018-09-03T08:46:19.664Z,17.43
2018-09-03T08:48:48.149Z,21.27
2018-09-03T08:51:16.572Z,18.07
2018-09-03T08:53:44.985Z,21.10
2018-09-03T08:56:13.429Z,24.03
2018-09-03T08:58:42.026Z,18.40
2018-09-03T09:01:10.453Z,19.07
2018-09-03T09:03:41.428Z,23.03
2018-09-03T09:06:10.276Z,17.93
2018-09-03T09:08:38.722Z,16.97
2018-09-03T09:11:08.304Z,18.77
2018-09-03T09:13:36.726Z,18.43
2018-09-03T09:16:05.125Z,27.30
2018-09-03T09:18:33.520Z,25.27
2018-09-03T09:21:01.931Z,26.73
2018-09-03T09:23:30.348Z,20.63
2018-09-03T09:25:58.780Z,20.73
2018-09-03T09:28:27.172Z,24.33
2018-09-03T09:30:55.572Z,18.93
2018-09-03T09:33:24.211Z,18.90
2018-09-03T09:35:52.616Z,28.23
2018-09-03T09:38:21.031Z,20.50
2018-09-03T09:40:49.755Z,19.83
2018-09-03T09:43:18.158Z,20.20
2018-09-03T09:45:46.664Z,16.70
2018-09-03T09:48:15.315Z,20.50
2018-09-03T09:50:43.800Z,20.07
2018-09-03T09:53:12.217Z,20.37
2018-09-03T09:55:40.629Z,22.60
2018-09-03T09:58:09.051Z,19.70
2018-09-03T10:00:42.840Z,19.47
2018-09-03T10:03:11.279Z,19.90
2018-09-03T10:05:39.701Z,17.07
2018-09-03T10:08:08.210Z,18.33
2018-09-03T10:10:36.661Z,17.90
2018-09-03T10:13:05.108Z,21.77
2018-09-03T10:15:33.516Z,16.23
2018-09-03T10:18:01.937Z,20.80
2018-09-03T10:20:30.672Z,19.73
2018-09-03T10:22:59.065Z,18.10
2018-09-03T10:25:27.480Z,20.73
2018-09-03T10:27:55.901Z,25.80
2018-09-03T10:30:24.299Z,19.97
2018-09-03T10:32:52.736Z,26.07
2018-09-03T10:35:21.193Z,20.33
2018-09-03T10:37:49.612Z,19.43
2018-09-03T10:40:18.069Z,18.07
2018-09-03T10:42:46.560Z,19.47
2018-09-03T10:45:14.937Z,26.03
2018-09-03T10:47:43.621Z,23.97
2018-09-03T10:50:11.945Z,22.80
2018-09-03T10:52:40.353Z,26.13
2018-09-03T10:55:08.803Z,23.60
2018-09-03T10:57:37.223Z,21.03
2018-09-03T11:00:06.245Z,19.73
2018-09-03T11:02:34.662Z,20.90
2018-09-03T11:05:03.073Z,26.30
2018-09-03T11:07:31.479Z,19.00
2018-09-03T11:09:59.928Z,19.70
2018-09-03T11:12:28.325Z,21.37
2018-09-03T11:14:56.733Z,23.93
2018-09-03T11:17:25.205Z,19.77
2018-09-03T11:19:56.399Z,21.13
2018-09-03T11:22:25.750Z,21.40
2018-09-03T11:24:54.353Z,20.30
2018-09-03T11:27:23.221Z,23.60
2018-09-03T11:29:51.613Z,21.70
2018-09-03T11:32:20.009Z,17.80
2018-09-03T11:34:48.425Z,21.30
2018-09-03T11:37:16.807Z,21.93
2018-09-03T11:39:45.228Z,19.13
2018-09-03T11:42:13.741Z,19.80
2018-09-03T11:44:42.165Z,19.20
2018-09-03T11:47:10.642Z,17.10
2018-09-03T11:49:39.165Z,15.47
2018-09-03T11:52:07.876Z,15.90
2018-09-03T11:54:36.424Z,18.13
2018-09-03T11:57:04.821Z,17.00
2018-09-03T11:59:33.365Z,17.27
2018-09-03T12:02:02.476Z,18.67
2018-09-03T12:04:31.108Z,20.30
2018-09-03T12:06:59.520Z,18.30
2018-09-03T12:09:27.946Z,28.17
2018-09-03T12:11:56.321Z,19.00
2018-09-03T12:14:27.240Z,20.00
2018-09-03T12:16:56.109Z,27.37
2018-09-03T12:19:24.521Z,30.53
2018-09-03T12:21:52.937Z,20.57
2018-09-03T12:24:21.341Z,18.90
2018-09-03T12:26:49.741Z,22.67
2018-09-03T12:29:18.181Z,19.23
2018-09-03T12:31:46.590Z,22.77
2018-09-03T12:34:15.165Z,18.27
2018-09-03T12:36:43.580Z,17.90
2018-09-03T12:39:11.979Z,23.80
2018-09-03T12:41:40.421Z,23.87
2018-09-03T12:44:08.843Z,21.50
2018-09-03T12:46:37.267Z,22.77
2018-09-03T12:49:05.756Z,21.20
2018-09-03T12:51:34.158Z,20.90
2018-09-03T12:54:02.544Z,22.37
2018-09-03T12:56:31.013Z,22.10
2018-09-03T12:58:59.420Z,17.97
2018-09-03T13:01:28.042Z,22.73
2018-09-03T13:03:56.450Z,22.83
2018-09-03T13:06:24.861Z,21.53
2018-09-03T13:08:53.305Z,19.10
2018-09-03T13:11:21.826Z,25.13
2018-09-03T13:13:50.638Z,22.93
2018-09-03T13:16:19.041Z,21.17
2018-09-03T13:18:47.433Z,27.00
2018-09-03T13:21:16.096Z,20.03
2018-09-03T13:23:45.205Z,27.47
2018-09-03T13:26:13.704Z,23.57
2018-09-03T13:28:42.155Z,24.63
2018-09-03T13:31:10.656Z,23.50
2018-09-03T13:33:39.135Z,26.77
2018-09-03T13:36:07.698Z,20.80
2018-09-03T13:38:36.063Z,18.37
2018-09-03T13:41:04.543Z,17.87
2018-09-03T13:43:32.973Z,20.70
2018-09-03T13:46:01.420Z,25.10
2018-09-03T13:48:29.852Z,22.07
2018-09-03T13:50:58.252Z,25.50
2018-09-03T13:53:26.845Z,21.70
2018-09-03T13:55:55.289Z,24.53
2018-09-03T13:58:23.681Z,26.80
2018-09-03T14:00:52.123Z,26.60
2018-09-03T14:03:20.700Z,24.63
2018-09-03T14:05:49.548Z,23.40
2018-09-03T14:08:17.958Z,22.80
2018-09-03T14:10:46.364Z,26.30
2018-09-03T14:13:14.788Z,35.70
2018-09-03T14:15:43.226Z,28.47
2018-09-03T14:18:11.780Z,30.37
2018-09-03T14:20:40.462Z,32.83
2018-09-03T14:23:08.888Z,31.37
2018-09-03T14:25:37.296Z,32.43
2018-09-03T14:28:06.185Z,35.43
2018-09-03T14:30:34.590Z,39.60
2018-09-03T14:33:03.101Z,32.40
2018-09-03T14:35:31.552Z,32.27
2018-09-03T14:38:00.031Z,29.90
2018-09-03T14:40:28.615Z,32.63
2018-09-03T14:42:57.051Z,37.37
2018-09-03T14:45:25.522Z,33.57
2018-09-03T14:47:54.041Z,35.60
2018-09-03T14:50:22.436Z,38.97
2018-09-03T14:52:50.977Z,35.07
2018-09-03T14:55:19.475Z,34.17
2018-09-03T14:57:47.977Z,37.57
2018-09-03T15:00:16.612Z,35.67
2018-09-03T15:02:45.320Z,42.67
2018-09-03T15:05:13.749Z,39.87
2018-09-03T15:07:42.516Z,33.17
2018-09-03T15:10:12.126Z,38.50
2018-09-03T15:12:42.556Z,36.87
2018-09-03T15:15:11.128Z,35.80
2018-09-03T15:17:39.578Z,36.00
2018-09-03T15:20:08.190Z,34.00
2018-09-03T15:22:36.592Z,37.27
2018-09-03T15:25:05.604Z,38.77
2018-09-03T15:27:34.317Z,35.13
2018-09-03T15:30:02.757Z,35.57
2018-09-03T15:32:31.261Z,36.87
2018-09-03T15:34:59.668Z,40.73
2018-09-03T15:37:28.317Z,37.00
2018-09-03T15:39:56.835Z,39.07
2018-09-03T15:42:25.301Z,36.23
2018-09-03T15:44:53.771Z,47.47
2018-09-03T15:47:22.331Z,38.60
2018-09-03T15:49:50.788Z,35.00
2018-09-03T15:52:19.221Z,35.10
2018-09-03T15:54:47.671Z,36.50
2018-09-03T15:57:16.141Z,37.63
2018-09-03T15:59:44.597Z,38.73
2018-09-03T16:02:13.004Z,35.03
2018-09-03T16:04:41.425Z,32.70
2018-09-03T16:07:09.920Z,35.23
2018-09-03T16:09:38.564Z,41.10
2018-09-03T16:12:07.216Z,34.20
2018-09-03T16:14:35.687Z,37.73
2018-09-03T16:17:04.121Z,31.77
2018-09-03T16:19:32.540Z,36.50
2018-09-03T16:22:01.022Z,32.10
2018-09-03T16:24:29.652Z,33.23
2018-09-03T16:26:58.074Z,32.10
2018-09-03T16:29:26.697Z,32.90
2018-09-03T16:31:55.139Z,35.63
2018-09-03T16:34:23.534Z,39.87
2018-09-03T16:36:51.998Z,34.47
2018-09-03T16:39:20.609Z,34.27
2018-09-03T16:41:49.078Z,36.67
2018-09-03T16:44:17.536Z,34.90
2018-09-03T16:46:46.109Z,36.67
2018-09-03T16:49:14.509Z,33.60
2018-09-03T16:51:42.954Z,39.10
2018-09-03T16:54:11.410Z,42.03
2018-09-03T16:56:40.057Z,45.47
2018-09-03T16:59:08.573Z,40.90
2018-09-03T17:01:36.985Z,42.10
2018-09-03T17:04:06.051Z,41.37
2018-09-03T17:06:34.732Z,37.70
2018-09-03T17:09:03.496Z,37.83
2018-09-03T17:11:31.981Z,40.00
2018-09-03T17:14:00.497Z,42.83
2018-09-03T17:16:28.979Z,46.87
2018-09-03T17:18:57.416Z,42.97
2018-09-03T17:21:25.995Z,43.13
2018-09-03T17:23:54.440Z,41.90
2018-09-03T17:26:23.042Z,42.87
2018-09-03T17:28:51.468Z,45.87
2018-09-03T17:31:19.920Z,41.20
2018-09-03T17:33:48.340Z,43.93
2018-09-03T17:36:16.748Z,39.03
2018-09-03T17:38:45.225Z,40.50
2018-09-03T17:41:13.874Z,41.20
2018-09-03T17:43:42.307Z,43.13
2018-09-03T17:46:10.716Z,44.00
2018-09-03T17:48:39.204Z,41.30
2018-09-03T17:51:07.625Z,43.77
2018-09-03T17:53:36.216Z,43.57
2018-09-03T17:56:04.844Z,42.93
2018-09-03T17:58:33.332Z,43.73
2018-09-03T18:01:02.256Z,38.67
2018-09-03T18:03:30.781Z,42.97
2018-09-03T18:05:59.289Z,38.37
2018-09-03T18:08:27.852Z,41.67
2018-09-03T18:10:56.239Z,44.37
2018-09-03T18:13:24.672Z,51.60
2018-09-03T18:15:53.080Z,40.53
2018-09-03T18:18:21.644Z,44.67
2018-09-03T18:20:50.739Z,44.70
2018-09-03T18:23:19.788Z,41.90
2018-09-03T18:25:48.249Z,44.47
2018-09-03T18:28:17.626Z,44.97
2018-09-03T18:30:46.665Z,41.67
2018-09-03T18:33:15.273Z,50.10
2018-09-03T18:35:43.752Z,45.50
2018-09-03T18:38:12.233Z,46.93
2018-09-03T18:40:40.688Z,41.73
2018-09-03T18:43:09.869Z,44.03
2018-09-03T18:45:39.103Z,42.63
2018-09-03T18:48:07.685Z,48.17
2018-09-03T18:50:39.149Z,46.10
2018-09-03T18:53:07.679Z,43.83
2018-09-03T18:55:36.790Z,45.30
2018-09-03T18:58:05.561Z,42.03
2018-09-03T19:00:34.097Z,48.87
2018-09-03T19:03:02.988Z,43.23
2018-09-03T19:05:31.746Z,44.57
2018-09-03T19:08:00.504Z,47.70
2018-09-03T19:10:29.351Z,49.07
2018-09-03T19:12:58.267Z,47.37
2018-09-03T19:15:27.081Z,47.87
2018-09-03T19:17:55.529Z,48.47
2018-09-03T19:20:24.270Z,49.20
2018-09-03T19:22:54.008Z,53.30
2018-09-03T19:25:22.562Z,47.03
2018-09-03T19:27:51.371Z,45.23
2018-09-03T19:30:20.165Z,48.40
2018-09-03T19:32:48.788Z,53.30
2018-09-03T19:35:17.320Z,53.00
2018-09-03T19:37:46.013Z,44.70
2018-09-03T19:40:14.657Z,44.87
2018-09-03T19:42:43.089Z,45.53
2018-09-03T19:45:12.266Z,55.10
2018-09-03T19:47:40.748Z,48.40
2018-09-03T19:50:10.280Z,50.67
2018-09-03T19:52:38.893Z,48.20
2018-09-03T19:55:07.533Z,52.40
2018-09-03T19:57:36.029Z,51.93
2018-09-03T20:00:04.692Z,59.63
2018-09-03T20:02:33.176Z,49.63
2018-09-03T20:05:01.604Z,58.17
2018-09-03T20:07:30.091Z,61.30
2018-09-03T20:09:59.168Z,54.87
2018-09-03T20:12:27.605Z,59.43
2018-09-03T20:14:56.188Z,59.93
2018-09-03T20:17:24.633Z,58.60
2018-09-03T20:19:53.868Z,57.40
2018-09-03T20:22:22.337Z,55.43
2018-09-03T20:24:50.790Z,60.07
2018-09-03T20:27:19.239Z,55.90
2018-09-03T20:29:47.773Z,54.00
2018-09-03T20:32:16.283Z,62.37
2018-09-03T20:34:44.697Z,60.27
2018-09-03T20:37:13.189Z,63.73
2018-09-03T20:39:41.569Z,64.87
2018-09-03T20:42:10.034Z,68.93
2018-09-03T20:44:38.489Z,63.80
2018-09-03T20:47:06.913Z,64.63
2018-09-03T20:49:35.532Z,62.83
2018-09-03T20:52:03.933Z,61.20
2018-09-03T20:54:32.344Z,61.17
2018-09-03T20:57:01.012Z,59.53
2018-09-03T20:59:29.459Z,56.17
2018-09-03T21:01:57.852Z,60.30
2018-09-03T21:04:26.307Z,58.10
2018-09-03T21:06:54.769Z,64.63
2018-09-03T21:09:23.409Z,62.77
2018-09-03T21:11:51.814Z,67.70
2018-09-03T21:14:20.215Z,65.17
2018-09-03T21:16:48.648Z,65.00
2018-09-03T21:19:17.020Z,65.43
2018-09-03T21:21:45.460Z,72.97
2018-09-03T21:24:13.832Z,69.30
2018-09-03T21:26:42.345Z,62.60
2018-09-03T21:29:10.773Z,64.97
2018-09-03T21:31:39.190Z,68.40
2018-09-03T21:34:07.620Z,67.43
2018-09-03T21:36:36.048Z,70.00
2018-09-03T21:39:06.084Z,63.63
2018-09-03T21:41:34.461Z,64.27
2018-09-03T21:44:03.170Z,66.53
2018-09-03T21:46:31.708Z,66.50
2018-09-03T21:49:00.129Z,58.20
2018-09-03T21:51:28.617Z,61.57
2018-09-03T21:53:57.028Z,60.00
2018-09-03T21:56:25.667Z,58.50
2018-09-03T21:58:54.069Z,57.57
2018-09-03T22:01:22.465Z,58.20
2018-09-03T22:03:51.108Z,61.53
2018-09-03T22:06:19.521Z,60.80
2018-09-03T22:08:47.960Z,57.60
2018-09-03T22:11:16.649Z,61.90
2018-09-03T22:13:45.056Z,62.90
2018-09-03T22:16:13.461Z,63.03
2018-09-03T22:18:42.078Z,63.37
2018-09-03T22:21:10.515Z,71.30
2018-09-03T22:23:39.233Z,74.80
2018-09-03T22:26:07.932Z,60.47
2018-09-03T22:28:36.351Z,67.57
2018-09-03T22:31:04.968Z,73.17
2018-09-03T22:33:33.388Z,55.40
2018-09-03T22:36:01.805Z,67.17
2018-09-03T22:38:30.214Z,61.47
2018-09-03T22:40:58.821Z,62.87
2018-09-03T22:43:27.212Z,68.23
2018-09-03T22:45:55.649Z,59.73
2018-09-03T22:48:24.076Z,68.87
2018-09-03T22:50:52.492Z,67.27
2018-09-03T22:53:20.913Z,73.23
2018-09-03T22:55:49.337Z,69.20
2018-09-03T22:58:17.742Z,66.10
2018-09-03T23:00:46.764Z,68.07
2018-09-03T23:03:15.181Z,72.57
2018-09-03T23:05:43.638Z,79.40
2018-09-03T23:08:12.028Z,80.63
2018-09-03T23:10:40.415Z,71.20
2018-09-03T23:13:08.824Z,80.07
2018-09-03T23:15:37.231Z,79.00
2018-09-03T23:18:05.861Z,76.17
2018-09-03T23:20:34.498Z,76.03
2018-09-03T23:23:02.882Z,77.07
2018-09-03T23:25:31.269Z,77.37
2018-09-03T23:27:59.792Z,80.83
2018-09-03T23:30:28.251Z,88.63
2018-09-03T23:32:56.653Z,83.73
2018-09-03T23:35:25.073Z,90.40
2018-09-03T23:37:53.458Z,90.63
2018-09-03T23:40:21.836Z,84.63
2018-09-03T23:42:50.251Z,88.83
2018-09-03T23:45:20.336Z,87.90
2018-09-03T23:47:48.892Z,95.70
2018-09-03T23:50:17.288Z,92.77
2018-09-03T23:52:45.701Z,87.10
2018-09-03T23:55:14.295Z,83.70
2018-09-03T23:57:42.680Z,89.17
